createdAt,value
2023-05-01T00:00:14.816Z,25.33
2023-05-01T00:03:41.934Z,31.00
2023-05-01T00:06:44.745Z,22.33
2023-05-01T00:09:49.525Z,19.33
2023-05-01T00:12:52.206Z,25.33
2023-05-01T00:15:56.289Z,35.67
2023-05-01T00:18:58.817Z,27.00
2023-05-01T00:22:01.828Z,23.67
2023-05-01T00:25:05.344Z,24.67
2023-05-01T00:28:08.417Z,22.33
2023-05-01T00:31:10.937Z,26.33
2023-05-01T00:34:13.749Z,29.33
2023-05-01T00:37:17.169Z,23.00
2023-05-01T00:40:20.111Z,24.33
2023-05-01T00:43:22.822Z,35.00
2023-05-01T00:46:26.593Z,19.67
2023-05-01T00:49:29.285Z,24.33
2023-05-01T00:52:32.029Z,25.00
2023-05-01T00:55:36.127Z,22.33
2023-05-01T00:58:39.549Z,30.00
2023-05-01T01:01:42.584Z,23.33
2023-05-01T01:04:47.147Z,29.67
2023-05-01T01:08:05.449Z,22.33
2023-05-01T01:11:47.894Z,30.33
2023-05-01T01:14:58.978Z,22.00
2023-05-01T01:18:26.326Z,24.67
2023-05-01T01:21:32.580Z,22.67
2023-05-01T01:24:48.070Z,26.67
2023-05-01T01:28:24.719Z,16.00
2023-05-01T01:31:36.560Z,18.00
2023-05-01T01:34:48.686Z,21.00
2023-05-01T01:37:57.843Z,22.67
2023-05-01T01:41:12.861Z,14.33
2023-05-01T01:44:21.536Z,19.67
2023-05-01T01:47:28.657Z,18.33
2023-05-01T01:50:32.639Z,22.67
2023-05-01T01:53:37.832Z,21.00
2023-05-01T01:56:42.477Z,27.33
2023-05-01T01:59:46.678Z,16.67
2023-05-01T02:02:50.224Z,22.00
2023-05-01T02:05:55.181Z,20.33
2023-05-01T02:08:59.085Z,21.33
2023-05-01T02:12:03.357Z,19.33
2023-05-01T02:15:08.622Z,18.00
2023-05-01T02:18:13.778Z,18.67
2023-05-01T02:21:17.473Z,15.33
2023-05-01T02:24:22.842Z,19.67
2023-05-01T02:27:31.570Z,15.33
2023-05-01T02:30:34.129Z,21.67
2023-05-01T02:33:37.241Z,14.33
2023-05-01T02:36:39.783Z,15.00
2023-05-01T02:39:43.052Z,24.00
2023-05-01T02:42:46.667Z,20.33
2023-05-01T02:45:52.076Z,16.00
2023-05-01T02:48:55.385Z,17.00
2023-05-01T02:51:58.710Z,16.00
2023-05-01T02:55:01.413Z,10.00
2023-05-01T02:58:04.260Z,14.33
2023-05-01T03:01:07.835Z,12.00
2023-05-01T03:04:10.695Z,15.67
2023-05-01T03:07:13.195Z,15.67
2023-05-01T03:10:15.941Z,18.00
2023-05-01T03:13:18.475Z,13.00
2023-05-01T03:16:21.376Z,18.33
2023-05-01T03:19:23.820Z,18.67
2023-05-01T03:22:29.871Z,16.50
2023-05-01T03:25:32.911Z,20.33
2023-05-01T03:28:35.724Z,13.00
2023-05-01T03:31:38.317Z,13.00
2023-05-01T03:34:44.777Z,17.00
2023-05-01T03:37:48.491Z,10.67
2023-05-01T03:41:07.968Z,15.67
2023-05-01T03:44:19.356Z,15.67
2023-05-01T03:47:24.805Z,24.00
2023-05-01T03:50:27.297Z,13.00
2023-05-01T03:53:30.390Z,12.67
2023-05-01T03:56:35.942Z,25.67
2023-05-01T03:59:41.086Z,18.00
2023-05-01T04:02:43.598Z,12.00
2023-05-01T04:05:51.408Z,16.75
2023-05-01T04:08:54.470Z,20.00
2023-05-01T04:11:57.511Z,22.00
2023-05-01T04:15:00.144Z,20.50
2023-05-01T04:18:02.957Z,18.00
2023-05-01T04:21:05.543Z,20.00
2023-05-01T04:24:08.301Z,18.00
2023-05-01T04:27:10.714Z,25.00
2023-05-01T04:30:13.653Z,19.33
2023-05-01T04:33:16.137Z,16.67
2023-05-01T04:36:18.928Z,24.00
2023-05-01T04:39:21.287Z,22.67
2023-05-01T04:42:24.172Z,17.67
2023-05-01T04:45:26.785Z,21.33
2023-05-01T04:48:30.574Z,23.67
2023-05-01T04:51:32.966Z,18.33
2023-05-01T04:54:36.360Z,18.67
2023-05-01T04:57:38.772Z,18.00
2023-05-01T05:00:43.614Z,27.67
2023-05-01T05:03:52.204Z,22.67
2023-05-01T05:06:55.559Z,17.67
2023-05-01T05:10:06.605Z,23.33
2023-05-01T05:13:10.477Z,37.67
2023-05-01T05:16:14.750Z,22.33
2023-05-01T05:19:17.933Z,21.33
2023-05-01T05:22:21.164Z,16.00
2023-05-01T05:25:46.516Z,16.33
2023-05-01T05:28:48.998Z,27.33
2023-05-01T05:31:51.757Z,15.67
2023-05-01T05:34:54.182Z,22.00
2023-05-01T05:37:57.649Z,22.33
2023-05-01T05:41:02.079Z,15.67
2023-05-01T05:44:06.669Z,17.00
2023-05-01T05:47:09.289Z,23.00
2023-05-01T05:50:12.174Z,15.33
2023-05-01T05:53:15.418Z,11.33
2023-05-01T05:56:19.015Z,16.00
2023-05-01T05:59:21.720Z,18.00
2023-05-01T06:02:24.695Z,12.00
2023-05-01T06:05:28.002Z,9.50
2023-05-01T06:08:30.826Z,13.75
2023-05-01T06:11:33.334Z,9.00
2023-05-01T06:14:36.332Z,6.25
2023-05-01T06:17:38.933Z,5.25
2023-05-01T06:20:41.910Z,7.50
2023-05-01T06:23:44.299Z,6.00
2023-05-01T06:27:00.852Z,6.50
2023-05-01T06:30:04.692Z,6.50
2023-05-01T06:33:10.595Z,6.00
2023-05-01T06:36:14.455Z,8.50
2023-05-01T06:39:17.319Z,9.75
2023-05-01T06:42:21.708Z,5.50
2023-05-01T06:45:24.345Z,6.00
2023-05-01T06:48:26.751Z,5.00
2023-05-01T06:51:30.606Z,7.00
2023-05-01T06:54:33.026Z,6.50
2023-05-01T06:57:35.867Z,7.25
2023-05-01T07:00:38.407Z,7.75
2023-05-01T07:03:41.500Z,8.00
2023-05-01T07:06:43.907Z,3.00
2023-05-01T07:09:47.518Z,8.00
2023-05-01T07:12:51.040Z,8.75
2023-05-01T07:15:54.625Z,8.75
2023-05-01T07:18:57.536Z,6.50
2023-05-01T07:22:01.142Z,5.50
2023-05-01T07:25:03.774Z,4.00
2023-05-01T07:28:08.319Z,7.00
2023-05-01T07:31:10.968Z,6.00
2023-05-01T07:34:13.956Z,9.25
2023-05-01T07:37:16.573Z,7.50
2023-05-01T07:40:19.363Z,5.75
2023-05-01T07:43:21.764Z,9.50
2023-05-01T07:46:24.751Z,8.50
2023-05-01T07:49:27.441Z,4.50
2023-05-01T07:52:30.760Z,7.50
2023-05-01T07:55:33.729Z,7.75
2023-05-01T07:58:37.422Z,9.00
2023-05-01T08:01:40.273Z,9.75
2023-05-01T08:04:43.064Z,9.50
2023-05-01T08:07:45.573Z,8.50
2023-05-01T08:10:49.202Z,9.00
2023-05-01T08:13:51.801Z,7.00
2023-05-01T08:16:56.309Z,9.00
2023-05-01T08:20:02.156Z,8.75
2023-05-01T08:23:05.065Z,10.25
2023-05-01T08:26:07.501Z,7.25
2023-05-01T08:29:10.590Z,8.25
2023-05-01T08:32:14.948Z,5.50
2023-05-01T08:35:17.860Z,5.00
2023-05-01T08:38:20.294Z,7.00
2023-05-01T08:41:24.022Z,6.75
2023-05-01T08:44:27.079Z,7.00
2023-05-01T08:47:30.807Z,7.25
2023-05-01T08:50:37.237Z,7.25
2023-05-01T08:53:41.671Z,6.00
2023-05-01T08:56:44.993Z,6.00
2023-05-01T08:59:48.642Z,4.75
2023-05-01T09:02:52.000Z,7.00
2023-05-01T09:05:55.123Z,7.00
2023-05-01T09:08:58.019Z,6.75
2023-05-01T09:12:09.506Z,7.75
2023-05-01T09:15:12.740Z,5.75
2023-05-01T09:18:15.568Z,7.00
2023-05-01T09:21:18.820Z,4.00
2023-05-01T09:24:24.796Z,8.00
2023-05-01T09:27:37.445Z,5.00
2023-05-01T09:30:40.281Z,7.00
2023-05-01T09:33:55.610Z,4.00
2023-05-01T09:36:58.412Z,5.00
2023-05-01T09:40:12.379Z,7.33
2023-05-01T09:43:24.215Z,7.33
2023-05-01T09:46:27.578Z,6.67
2023-05-01T09:49:45.911Z,6.33
2023-05-01T09:52:52.858Z,6.67
2023-05-01T09:56:02.497Z,7.67
2023-05-01T09:59:21.462Z,9.00
2023-05-01T10:02:31.033Z,6.00
2023-05-01T10:05:44.439Z,8.00
2023-05-01T10:08:49.588Z,6.00
2023-05-01T10:11:55.906Z,5.33
2023-05-01T10:14:59.594Z,7.00
2023-05-01T10:18:05.463Z,7.33
2023-05-01T10:21:10.740Z,6.00
2023-05-01T10:24:15.397Z,5.00
2023-05-01T10:27:19.224Z,7.33
2023-05-01T10:30:22.474Z,6.00
2023-05-01T10:33:25.519Z,7.00
2023-05-01T10:36:33.563Z,5.67
2023-05-01T10:39:37.588Z,6.33
2023-05-01T10:43:18.381Z,5.33
2023-05-01T10:46:21.316Z,6.33
2023-05-01T10:49:23.971Z,4.00
2023-05-01T10:52:26.911Z,7.67
2023-05-01T10:55:36.552Z,5.67
2023-05-01T10:58:54.815Z,7.67
2023-05-01T11:01:57.599Z,7.33
2023-05-01T11:05:00.756Z,7.00
2023-05-01T11:08:31.865Z,7.00
2023-05-01T11:11:35.062Z,6.67
2023-05-01T11:15:05.948Z,5.00
2023-05-01T11:18:09.001Z,6.00
2023-05-01T11:21:11.554Z,6.33
2023-05-01T11:24:14.398Z,6.67
2023-05-01T11:27:17.059Z,7.00
2023-05-01T11:30:20.175Z,6.33
2023-05-01T11:33:23.813Z,5.33
2023-05-01T11:36:27.578Z,7.33
2023-05-01T11:39:29.991Z,6.00
2023-05-01T11:42:32.811Z,4.00
2023-05-01T11:45:37.204Z,7.33
2023-05-01T11:48:40.314Z,5.33
2023-05-01T11:51:42.740Z,9.33
2023-05-01T11:54:48.894Z,8.00
2023-05-01T11:57:53.830Z,9.33
2023-05-01T12:00:56.536Z,7.33
2023-05-01T12:03:59.360Z,6.00
2023-05-01T12:07:02.350Z,6.33
2023-05-01T12:10:06.349Z,5.67
2023-05-01T12:13:11.508Z,18.67
2023-05-01T12:16:14.057Z,7.00
2023-05-01T12:19:17.659Z,7.00
2023-05-01T12:22:21.399Z,6.00
2023-05-01T12:25:30.544Z,5.00
2023-05-01T12:28:33.136Z,6.00
2023-05-01T12:31:37.131Z,5.00
2023-05-01T12:34:41.057Z,5.33
2023-05-01T12:37:53.565Z,4.67
2023-05-01T12:40:57.894Z,6.00
2023-05-01T12:44:00.806Z,7.67
2023-05-01T12:47:05.068Z,6.67
2023-05-01T12:50:08.565Z,8.00
2023-05-01T12:53:11.285Z,4.33
2023-05-01T12:56:25.250Z,4.33
2023-05-01T12:59:28.534Z,7.00
2023-05-01T13:02:33.272Z,4.00
2023-05-01T13:05:35.755Z,5.00
2023-05-01T13:08:42.281Z,5.00
2023-05-01T13:12:06.211Z,7.33
2023-05-01T13:15:19.956Z,4.00
2023-05-01T13:18:22.963Z,5.33
2023-05-01T13:21:27.250Z,7.00
2023-05-01T13:24:40.205Z,5.67
2023-05-01T13:27:49.912Z,6.67
2023-05-01T13:30:53.735Z,6.00
2023-05-01T13:33:58.792Z,7.33
2023-05-01T13:37:02.320Z,4.00
2023-05-01T13:40:05.588Z,5.00
2023-05-01T13:43:14.362Z,5.00
2023-05-01T13:46:18.611Z,7.00
2023-05-01T13:49:23.048Z,5.67
2023-05-01T13:52:26.354Z,3.33
2023-05-01T13:55:29.563Z,4.00
2023-05-01T13:58:33.298Z,3.00
2023-05-01T14:01:47.680Z,3.33
2023-05-01T14:04:51.134Z,7.00
2023-05-01T14:07:58.766Z,5.33
2023-05-01T14:11:05.706Z,6.00
2023-05-01T14:14:09.155Z,6.00
2023-05-01T14:17:12.461Z,5.00
2023-05-01T14:20:15.275Z,4.67
2023-05-01T14:23:20.896Z,5.33
2023-05-01T14:26:26.600Z,5.67
2023-05-01T14:29:30.409Z,7.00
2023-05-01T14:32:38.658Z,6.00
2023-05-01T14:35:51.682Z,5.67
2023-05-01T14:38:57.456Z,4.33
2023-05-01T14:42:00.917Z,6.00
2023-05-01T14:45:07.041Z,5.00
2023-05-01T14:48:12.220Z,5.00
2023-05-01T14:51:19.652Z,8.00
2023-05-01T14:54:22.766Z,5.67
2023-05-01T14:57:26.963Z,8.00
2023-05-01T15:00:31.596Z,6.33
2023-05-01T15:03:36.506Z,5.00
2023-05-01T15:06:39.649Z,5.00
2023-05-01T15:09:43.201Z,6.00
2023-05-01T15:12:46.225Z,8.00
2023-05-01T15:15:48.784Z,6.00
2023-05-01T15:18:51.736Z,7.67
2023-05-01T15:21:54.197Z,4.33
2023-05-01T15:24:57.202Z,5.00
2023-05-01T15:27:59.947Z,6.00
2023-05-01T15:31:02.989Z,5.00
2023-05-01T15:34:05.609Z,6.33
2023-05-01T15:37:08.812Z,8.00
2023-05-01T15:40:11.464Z,4.33
2023-05-01T15:43:14.487Z,6.00
2023-05-01T15:46:20.216Z,7.00
2023-05-01T15:49:23.136Z,6.00
2023-05-01T15:52:26.192Z,5.00
2023-05-01T15:55:29.411Z,7.00
2023-05-01T15:58:40.486Z,5.00
2023-05-01T16:01:46.077Z,7.00
2023-05-01T16:04:48.594Z,6.00
2023-05-01T16:07:54.576Z,3.00
2023-05-01T16:10:58.550Z,4.67
2023-05-01T16:14:01.456Z,4.00
2023-05-01T16:17:05.754Z,5.00
2023-05-01T16:20:12.144Z,6.33
2023-05-01T16:23:15.814Z,4.33
2023-05-01T16:26:28.131Z,5.00
2023-05-01T16:29:34.972Z,5.00
2023-05-01T16:32:39.932Z,5.67
2023-05-01T16:35:42.382Z,6.67
2023-05-01T16:38:46.930Z,5.67
2023-05-01T16:41:54.606Z,6.00
2023-05-01T16:44:57.619Z,6.00
2023-05-01T16:48:00.965Z,7.00
2023-05-01T16:51:06.563Z,7.00
2023-05-01T16:54:09.125Z,4.00
2023-05-01T16:57:12.045Z,7.00
2023-05-01T17:00:16.171Z,4.75
2023-05-01T17:03:19.019Z,4.75
2023-05-01T17:06:21.768Z,5.50
2023-05-01T17:09:24.557Z,7.25
2023-05-01T17:12:31.682Z,6.00
2023-05-01T17:15:35.262Z,5.00
2023-05-01T17:18:37.865Z,6.00
2023-05-01T17:21:52.658Z,6.25
2023-05-01T17:24:55.600Z,3.50
2023-05-01T17:28:00.738Z,6.50
2023-05-01T17:31:04.084Z,5.00
2023-05-01T17:34:06.869Z,5.25
2023-05-01T17:37:10.257Z,7.00
2023-05-01T17:40:14.025Z,5.25
2023-05-01T17:43:17.103Z,5.50
2023-05-01T17:46:20.590Z,5.50
2023-05-01T17:49:24.491Z,4.75
2023-05-01T17:52:27.059Z,5.00
2023-05-01T17:55:31.059Z,7.00
2023-05-01T17:58:34.177Z,6.00
2023-05-01T18:01:37.044Z,5.50
2023-05-01T18:04:39.723Z,5.50
2023-05-01T18:07:42.778Z,5.25
2023-05-01T18:10:45.747Z,4.25
2023-05-01T18:13:51.685Z,9.00
2023-05-01T18:16:54.626Z,5.00
2023-05-01T18:19:58.025Z,6.50
2023-05-01T18:23:02.517Z,6.00
2023-05-01T18:26:06.283Z,9.00
2023-05-01T18:29:10.214Z,6.00
2023-05-01T18:32:14.192Z,5.75
2023-05-01T18:35:18.903Z,5.00
2023-05-01T18:38:24.470Z,10.75
2023-05-01T18:41:29.437Z,9.00
2023-05-01T18:44:33.548Z,7.50
2023-05-01T18:47:38.391Z,7.25
2023-05-01T18:50:42.934Z,8.00
2023-05-01T18:53:46.668Z,8.75
2023-05-01T18:56:50.358Z,8.75
2023-05-01T18:59:54.736Z,8.75
2023-05-01T19:02:59.964Z,10.00
2023-05-01T19:06:03.583Z,6.00
2023-05-01T19:09:08.002Z,5.50
2023-05-01T19:12:13.507Z,7.25
2023-05-01T19:15:19.081Z,8.25
2023-05-01T19:18:22.687Z,8.75
2023-05-01T19:21:27.422Z,7.00
2023-05-01T19:24:31.076Z,4.75
2023-05-01T19:27:36.272Z,9.00
2023-05-01T19:30:42.022Z,8.25
2023-05-01T19:33:49.131Z,7.00
2023-05-01T19:36:57.304Z,8.00
2023-05-01T19:40:01.527Z,6.25
2023-05-01T19:43:08.478Z,6.75
2023-05-01T19:46:12.487Z,6.50
2023-05-01T19:49:15.893Z,8.50
2023-05-01T19:52:22.648Z,7.75
2023-05-01T19:55:36.517Z,8.00
2023-05-01T19:58:39.884Z,8.25
2023-05-01T20:01:43.635Z,6.75
2023-05-01T20:04:48.422Z,8.00
2023-05-01T20:07:51.880Z,6.25
2023-05-01T20:10:57.011Z,9.75
2023-05-01T20:14:00.233Z,9.75
2023-05-01T20:17:03.397Z,10.50
2023-05-01T20:20:06.288Z,8.50
2023-05-01T20:23:13.205Z,11.25
2023-05-01T20:26:17.845Z,8.25
2023-05-01T20:29:20.841Z,12.25
2023-05-01T20:32:24.521Z,7.00
2023-05-01T20:35:27.960Z,12.00
2023-05-01T20:38:30.831Z,9.00
2023-05-01T20:41:34.247Z,12.00
2023-05-01T20:44:37.288Z,10.50
2023-05-01T20:47:40.480Z,9.50
2023-05-01T20:50:44.302Z,10.75
2023-05-01T20:53:47.132Z,13.50
2023-05-01T20:56:49.613Z,12.00
2023-05-01T20:59:52.404Z,15.25
2023-05-01T21:02:58.410Z,10.00
2023-05-01T21:06:02.233Z,12.00
2023-05-01T21:09:06.215Z,12.50
2023-05-01T21:12:11.635Z,12.25
2023-05-01T21:15:14.371Z,14.50
2023-05-01T21:18:18.317Z,11.50
2023-05-01T21:21:21.014Z,15.00
2023-05-01T21:24:25.535Z,14.25
2023-05-01T21:27:28.569Z,12.00
2023-05-01T21:30:33.782Z,17.75
2023-05-01T21:33:37.847Z,13.25
2023-05-01T21:36:47.054Z,10.75
2023-05-01T21:39:50.336Z,19.25
2023-05-01T21:42:56.521Z,15.00
2023-05-01T21:45:59.086Z,14.75
2023-05-01T21:49:01.789Z,16.75
2023-05-01T21:52:04.388Z,15.00
2023-05-01T21:55:09.576Z,12.75
2023-05-01T21:58:13.309Z,13.50
2023-05-01T22:01:19.843Z,16.50
2023-05-01T22:04:23.523Z,14.75
2023-05-01T22:07:27.028Z,16.00
2023-05-01T22:10:29.936Z,12.00
2023-05-01T22:13:33.863Z,15.50
2023-05-01T22:16:36.406Z,13.25
2023-05-01T22:19:39.220Z,15.75
2023-05-01T22:22:42.503Z,14.00
2023-05-01T22:25:45.277Z,11.25
2023-05-01T22:28:48.106Z,16.00
2023-05-01T22:31:51.079Z,13.25
2023-05-01T22:34:53.645Z,10.50
2023-05-01T22:37:56.500Z,14.25
2023-05-01T22:40:59.009Z,17.00
2023-05-01T22:44:01.792Z,19.75
2023-05-01T22:47:04.244Z,16.50
2023-05-01T22:50:07.645Z,13.00
2023-05-01T22:53:10.248Z,13.00
2023-05-01T22:56:13.000Z,13.75
2023-05-01T22:59:15.540Z,14.25
2023-05-01T23:02:19.147Z,11.00
2023-05-01T23:05:21.801Z,13.00
2023-05-01T23:08:24.661Z,11.75
2023-05-01T23:11:32.744Z,11.50
2023-05-01T23:14:47.191Z,15.00
2023-05-01T23:17:49.716Z,11.00
2023-05-01T23:20:52.919Z,11.50
2023-05-01T23:23:58.514Z,17.25
2023-05-01T23:27:01.392Z,12.00
2023-05-01T23:30:05.674Z,19.00
2023-05-01T23:33:11.468Z,13.00
2023-05-01T23:36:14.256Z,12.00
2023-05-01T23:39:17.062Z,14.25
2023-05-01T23:42:20.862Z,13.50
2023-05-01T23:45:23.595Z,15.00
2023-05-01T23:48:26.239Z,14.00
2023-05-01T23:51:29.183Z,21.75
2023-05-01T23:54:31.789Z,11.00
2023-05-01T23:57:34.428Z,15.50
